createdAt,value
2018-12-27T00:00:31.688Z,23.6
2018-12-27T00:01:21.153Z,23.6
2018-12-27T00:02:11.809Z,23.6
2018-12-27T00:03:01.542Z,23.6
2018-12-27T00:03:51.639Z,23.6
2018-12-27T00:04:41.417Z,23.6
2018-12-27T00:05:31.177Z,23.6
2018-12-27T00:06:20.982Z,23.6
2018-12-27T00:07:11.052Z,23.6
2018-12-27T00:08:02.222Z,23.6
2018-12-27T00:08:51.421Z,23.6
2018-12-27T00:09:41.212Z,23.6
2018-12-27T00:10:32.186Z,23.6
2018-12-27T00:11:20.749Z,23.6
2018-12-27T00:12:12.494Z,23.6
2018-12-27T00:13:01.969Z,23.6
2018-12-27T00:13:52.405Z,23.6
2018-12-27T00:14:42.634Z,23.6
2018-12-27T00:33:04.767Z,23.5
2018-12-27T00:33:46.253Z,23.6
2018-12-27T00:34:36.545Z,23.6
2018-12-27T00:35:26.318Z,23.5
2018-12-27T00:36:16.942Z,23.5
2018-12-27T00:37:06.778Z,23.6
2018-12-27T00:37:56.735Z,23.5
2018-12-27T00:38:46.797Z,23.6
2018-12-27T00:39:36.040Z,23.5
2018-12-27T00:40:26.715Z,23.5
2018-12-27T00:41:16.705Z,23.6
2018-12-27T00:42:06.490Z,23.5
2018-12-27T00:42:56.825Z,23.5
2018-12-27T00:43:46.847Z,23.5
2018-12-27T00:44:36.727Z,23.5
2018-12-27T00:45:27.397Z,23.5
2018-12-27T00:46:16.580Z,23.5
2018-12-27T00:47:06.842Z,23.5
2018-12-27T00:47:56.359Z,23.5
2018-12-27T00:48:47.239Z,23.4
2018-12-27T00:49:37.609Z,23.5
2018-12-27T00:50:26.832Z,23.5
2018-12-27T00:51:17.365Z,23.5
2018-12-27T00:52:07.442Z,23.5
2018-12-27T00:52:56.944Z,23.5
2018-12-27T00:53:48.096Z,23.5
2018-12-27T00:54:37.336Z,23.4
2018-12-27T00:55:27.965Z,23.4
2018-12-27T00:56:16.969Z,23.5
2018-12-27T00:57:08.079Z,23.4
2018-12-27T00:57:57.719Z,23.4
2018-12-27T00:58:48.129Z,23.4
2018-12-27T00:59:37.769Z,23.4
2018-12-27T01:00:26.786Z,23.4
2018-12-27T01:01:17.931Z,23.4
2018-12-27T01:02:07.671Z,23.4
2018-12-27T01:02:57.422Z,23.4
2018-12-27T01:03:48.547Z,23.4
2018-12-27T01:04:38.124Z,23.4
2018-12-27T01:05:27.522Z,23.4
2018-12-27T01:06:18.049Z,23.4
2018-12-27T01:07:07.939Z,23.4
2018-12-27T01:07:58.271Z,23.4
2018-12-27T01:08:49.173Z,23.4
2018-12-27T01:09:53.876Z,23.4
2018-12-27T01:10:28.971Z,23.4
2018-12-27T01:11:18.482Z,23.4
2018-12-27T01:12:08.828Z,23.4
2018-12-27T01:12:58.891Z,23.4
2018-12-27T01:13:48.793Z,23.4
2018-12-27T01:14:38.963Z,23.4
2018-12-27T01:15:29.023Z,23.4
2018-12-27T01:16:19.176Z,23.4
2018-12-27T01:17:08.913Z,23.4
2018-12-27T01:17:59.278Z,23.4
2018-12-27T01:18:49.785Z,23.4
2018-12-27T01:19:38.520Z,23.4
2018-12-27T01:20:29.449Z,23.3
2018-12-27T01:21:19.740Z,23.4
2018-12-27T01:22:09.244Z,23.4
2018-12-27T01:22:59.592Z,23.4
2018-12-27T01:23:49.920Z,23.4
2018-12-27T01:24:38.860Z,23.4
2018-12-27T01:25:29.950Z,23.4
2018-12-27T01:26:20.729Z,23.4
2018-12-27T01:27:10.130Z,23.4
2018-12-27T01:28:00.172Z,23.4
2018-12-27T01:28:49.247Z,23.4
2018-12-27T01:29:40.654Z,23.3
2018-12-27T01:30:29.252Z,23.4
2018-12-27T01:31:20.649Z,23.3
2018-12-27T01:32:09.921Z,23.3
2018-12-27T01:33:00.806Z,23.3
2018-12-27T01:33:50.939Z,23.3
2018-12-27T01:34:40.618Z,23.3
2018-12-27T01:35:30.474Z,23.3
2018-12-27T01:36:20.857Z,23.3
2018-12-27T01:37:10.558Z,23.3
2018-12-27T01:37:59.758Z,23.3
2018-12-27T01:38:51.218Z,23.3
2018-12-27T01:39:40.219Z,23.3
2018-12-27T01:40:30.218Z,23.3
2018-12-27T01:41:20.841Z,23.3
2018-12-27T01:42:10.886Z,23.3
2018-12-27T01:43:00.943Z,23.3
2018-12-27T01:43:51.528Z,23.2
2018-12-27T01:44:41.046Z,23.2
2018-12-27T01:45:30.843Z,23.2
2018-12-27T01:46:21.717Z,23.2
2018-12-27T01:47:11.288Z,23.2
2018-12-27T01:48:01.018Z,23.2
2018-12-27T01:48:51.054Z,23.2
2018-12-27T01:49:41.928Z,23.2
2018-12-27T01:50:31.778Z,23.2
2018-12-27T01:51:21.513Z,23.1
2018-12-27T01:52:10.718Z,23.1
2018-12-27T01:53:01.355Z,23.1
2018-12-27T01:53:51.778Z,23.1
2018-12-27T01:54:41.732Z,23.1
2018-12-27T01:55:31.535Z,23.1
2018-12-27T01:56:22.120Z,23.1
2018-12-27T01:57:12.026Z,23.1
2018-12-27T01:58:02.220Z,23.1
2018-12-27T01:58:52.020Z,23.1
2018-12-27T01:59:41.813Z,23.1
2018-12-27T02:00:31.577Z,23.1
2018-12-27T02:01:22.465Z,23.1
2018-12-27T02:02:12.509Z,23.1
2018-12-27T02:03:01.753Z,23.2
2018-12-27T02:03:52.620Z,23.3
2018-12-27T02:04:42.757Z,23.3
2018-12-27T02:05:32.750Z,23.4
2018-12-27T02:06:22.505Z,23.4
2018-12-27T02:07:12.584Z,23.6
2018-12-27T02:08:02.919Z,23.6
2018-12-27T02:08:52.677Z,23.7
2018-12-27T02:09:43.032Z,23.8
2018-12-27T02:10:32.904Z,23.9
2018-12-27T02:11:23.407Z,24
2018-12-27T02:12:13.275Z,24.1
2018-12-27T02:13:03.249Z,24.2
2018-12-27T02:13:53.031Z,24.3
2018-12-27T02:14:43.096Z,24.3
2018-12-27T02:15:33.161Z,24.4
2018-12-27T02:16:22.944Z,24.5
2018-12-27T02:17:13.556Z,24.6
2018-12-27T02:18:03.956Z,24.7
2018-12-27T02:18:53.401Z,24.8
2018-12-27T02:19:43.148Z,24.9
2018-12-27T02:20:33.226Z,25
2018-12-27T02:21:24.367Z,25.1
2018-12-27T02:22:13.393Z,25.2
2018-12-27T02:23:03.951Z,25.3
2018-12-27T02:23:53.196Z,25.4
2018-12-27T02:24:44.065Z,25.4
2018-12-27T02:25:33.583Z,25.5
2018-12-27T02:26:24.161Z,25.6
2018-12-27T02:27:14.194Z,25.7
2018-12-27T02:28:04.026Z,25.8
2018-12-27T02:28:53.250Z,25.9
2018-12-27T02:29:44.658Z,26
2018-12-27T02:30:34.226Z,26.1
2018-12-27T02:31:24.650Z,26.1
2018-12-27T02:32:14.955Z,26.3
2018-12-27T02:33:04.372Z,26.3
2018-12-27T02:33:54.400Z,26.4
2018-12-27T02:34:44.760Z,26.5
2018-12-27T02:35:35.104Z,26.6
2018-12-27T02:36:24.598Z,26.7
2018-12-27T02:37:14.967Z,26.8
2018-12-27T02:38:04.769Z,26.8
2018-12-27T02:38:54.778Z,26.9
2018-12-27T02:39:46.320Z,27
2018-12-27T02:40:35.177Z,27.1
2018-12-27T02:41:24.709Z,27.1
2018-12-27T02:42:15.317Z,27.2
2018-12-27T02:43:05.063Z,27.3
2018-12-27T02:43:55.410Z,27.3
2018-12-27T02:44:44.990Z,27.4
2018-12-27T02:45:35.507Z,27.5
2018-12-27T02:46:24.743Z,27.6
2018-12-27T02:47:15.372Z,27.7
2018-12-27T02:48:05.974Z,27.7
2018-12-27T02:48:55.459Z,27.8
2018-12-27T02:50:35.628Z,27.9
2018-12-27T02:51:24.819Z,28
2018-12-27T02:52:15.410Z,28
2018-12-27T02:53:05.449Z,28.1
2018-12-27T02:53:55.544Z,28.2
2018-12-27T02:54:45.851Z,28.3
2018-12-27T02:55:36.191Z,28.3
2018-12-27T02:56:26.256Z,28.4
2018-12-27T02:57:16.349Z,28.4
2018-12-27T02:58:06.109Z,28.6
2018-12-27T02:58:55.856Z,28.6
2018-12-27T02:59:46.011Z,28.8
2018-12-27T03:00:35.992Z,28.8
2018-12-27T03:01:25.000Z,28.9
2018-12-27T03:02:16.371Z,28.9
2018-12-27T03:03:06.999Z,29
2018-12-27T03:03:56.796Z,29.1
2018-12-27T03:04:46.831Z,29.2
2018-12-27T03:05:37.159Z,29.3
2018-12-27T03:06:26.106Z,29.4
2018-12-27T03:07:17.281Z,29.4
2018-12-27T03:08:06.468Z,29.6
2018-12-27T03:08:56.306Z,29.6
2018-12-27T03:09:47.467Z,29.7
2018-12-27T03:10:37.461Z,29.8
2018-12-27T03:11:26.451Z,29.9
2018-12-27T03:12:17.121Z,29.9
2018-12-27T03:13:05.780Z,30
2018-12-27T03:13:56.664Z,30.1
2018-12-27T03:14:47.332Z,30.1
2018-12-27T03:15:37.350Z,30.2
2018-12-27T03:16:27.620Z,30.3
2018-12-27T03:17:17.546Z,30.4
2018-12-27T03:18:07.003Z,30.4
2018-12-27T03:18:57.294Z,30.6
2018-12-27T03:19:47.406Z,30.6
2018-12-27T03:20:37.615Z,30.8
2018-12-27T03:21:27.246Z,30.8
2018-12-27T03:22:17.545Z,30.9
2018-12-27T03:23:07.571Z,31
2018-12-27T03:23:57.610Z,31.1
2018-12-27T03:24:47.707Z,31.2
2018-12-27T03:25:37.110Z,31.3
2018-12-27T03:26:28.215Z,31.4
2018-12-27T03:27:17.170Z,31.4
2018-12-27T03:28:07.199Z,31.5
2018-12-27T03:28:57.322Z,31.6
2018-12-27T03:29:47.622Z,31.7
2018-12-27T03:30:37.459Z,31.7
2018-12-27T03:31:28.521Z,31.8
2018-12-27T03:32:17.883Z,31.9
2018-12-27T03:33:08.154Z,31.9
2018-12-27T03:33:58.046Z,31.9
2018-12-27T03:34:48.170Z,32
2018-12-27T03:35:37.702Z,32
2018-12-27T03:36:27.931Z,32.1
2018-12-27T03:37:18.435Z,32.1
2018-12-27T03:38:08.452Z,32.1
2018-12-27T03:38:58.306Z,32.1
2018-12-27T03:39:48.544Z,32.2
2018-12-27T03:40:38.300Z,32.2
2018-12-27T03:41:28.849Z,32.3
2018-12-27T03:42:17.968Z,32.3
2018-12-27T03:43:08.532Z,32.3
2018-12-27T03:43:58.047Z,32.3
2018-12-27T03:44:48.057Z,32.3
2018-12-27T03:45:38.707Z,32.4
2018-12-27T03:46:27.869Z,32.4
2018-12-27T03:47:18.486Z,32.4
2018-12-27T03:48:08.876Z,32.4
2018-12-27T03:48:59.925Z,32.4
2018-12-27T03:49:48.911Z,32.5
2018-12-27T03:50:38.664Z,32.5
2018-12-27T03:51:28.778Z,32.5
2018-12-27T03:52:19.534Z,32.6
2018-12-27T03:53:09.174Z,32.6
2018-12-27T03:53:59.444Z,32.6
2018-12-27T03:54:49.606Z,32.6
2018-12-27T03:55:38.822Z,32.6
2018-12-27T03:56:29.414Z,32.6
2018-12-27T03:57:19.193Z,32.6
2018-12-27T03:58:09.439Z,32.6
2018-12-27T03:58:59.272Z,32.6
2018-12-27T03:59:49.675Z,32.7
2018-12-27T04:00:39.947Z,32.7
2018-12-27T04:01:29.764Z,32.7
2018-12-27T04:02:19.823Z,32.7
2018-12-27T04:03:10.583Z,32.7
2018-12-27T04:04:06.064Z,32.8
2018-12-27T04:04:50.454Z,32.8
2018-12-27T04:05:40.499Z,32.8
2018-12-27T04:06:30.303Z,32.8
2018-12-27T04:07:20.287Z,32.8
2018-12-27T04:08:10.723Z,32.8
2018-12-27T04:09:00.188Z,32.8
2018-12-27T04:09:51.155Z,32.8
2018-12-27T04:10:41.142Z,32.9
2018-12-27T04:11:30.975Z,32.9
2018-12-27T04:12:21.756Z,32.9
2018-12-27T04:13:11.310Z,32.9
2018-12-27T04:14:00.566Z,32.9
2018-12-27T04:14:51.143Z,32.9
2018-12-27T04:15:41.195Z,32.9
2018-12-27T04:16:31.800Z,32.9
2018-12-27T04:17:21.645Z,32.9
2018-12-27T04:18:11.611Z,32.9
2018-12-27T04:19:01.613Z,32.9
2018-12-27T04:19:51.220Z,32.9
2018-12-27T04:20:41.542Z,32.9
2018-12-27T04:21:31.307Z,32.9
2018-12-27T04:22:20.901Z,32.9
2018-12-27T04:23:11.192Z,32.9
2018-12-27T04:24:01.500Z,32.9
2018-12-27T04:25:06.554Z,32.9
2018-12-27T04:25:41.339Z,32.9
2018-12-27T04:26:31.432Z,32.9
2018-12-27T04:27:21.400Z,33
2018-12-27T04:28:11.246Z,33
2018-12-27T04:29:01.270Z,33
2018-12-27T04:29:51.660Z,33
2018-12-27T04:30:42.449Z,33
2018-12-27T04:31:32.731Z,33
2018-12-27T04:32:22.011Z,33.1
2018-12-27T04:33:13.134Z,33
2018-12-27T04:34:10.906Z,33.1
2018-12-27T04:34:52.849Z,33
2018-12-27T04:35:42.814Z,33
2018-12-27T04:36:32.811Z,33
2018-12-27T04:37:22.920Z,33
2018-12-27T04:38:12.121Z,33
2018-12-27T04:39:02.979Z,33.1
2018-12-27T04:39:53.054Z,33.1
2018-12-27T04:40:43.704Z,33.1
2018-12-27T04:41:33.019Z,33
2018-12-27T04:42:23.838Z,33.1
2018-12-27T04:43:13.574Z,33.1
2018-12-27T04:44:03.671Z,33.1
2018-12-27T04:44:53.398Z,33.1
2018-12-27T05:02:12.218Z,33
2018-12-27T05:03:02.465Z,33
2018-12-27T05:03:52.535Z,33
2018-12-27T05:04:42.259Z,33
2018-12-27T05:05:32.945Z,33.1
2018-12-27T05:06:22.090Z,33
2018-12-27T05:07:12.482Z,33
2018-12-27T05:08:04.058Z,33
2018-12-27T05:08:52.677Z,33
2018-12-27T05:09:42.559Z,33
2018-12-27T05:10:32.421Z,33
2018-12-27T05:11:23.094Z,33
2018-12-27T05:12:12.206Z,33
2018-12-27T05:13:02.865Z,33
2018-12-27T05:13:52.569Z,32.9
2018-12-27T05:14:42.666Z,32.9
2018-12-27T05:15:33.295Z,33
2018-12-27T05:16:22.469Z,32.9
2018-12-27T05:17:13.119Z,32.9
2018-12-27T05:18:03.739Z,32.9
2018-12-27T05:18:53.294Z,32.9
2018-12-27T05:19:42.989Z,32.9
2018-12-27T05:20:33.391Z,33
2018-12-27T05:21:22.835Z,32.9
2018-12-27T05:22:12.875Z,32.9
2018-12-27T05:23:04.097Z,32.9
2018-12-27T05:23:53.115Z,32.9
2018-12-27T05:24:42.763Z,32.9
2018-12-27T05:25:33.400Z,32.9
2018-12-27T05:26:23.441Z,32.9
2018-12-27T05:27:13.802Z,32.9
2018-12-27T05:28:03.646Z,32.9
2018-12-27T05:28:54.536Z,32.9
2018-12-27T05:29:43.088Z,32.9
2018-12-27T05:30:33.530Z,32.9
2018-12-27T05:31:23.235Z,32.9
2018-12-27T05:32:14.077Z,32.9
2018-12-27T05:33:04.003Z,32.9
2018-12-27T05:33:54.803Z,32.9
2018-12-27T05:34:44.845Z,32.9
2018-12-27T05:35:34.607Z,32.9
2018-12-27T05:36:24.170Z,32.9
2018-12-27T05:37:15.096Z,32.9
2018-12-27T05:38:04.564Z,32.9
2018-12-27T05:38:54.290Z,32.9
2018-12-27T05:39:44.900Z,32.9
2018-12-27T05:40:34.384Z,32.9
2018-12-27T05:41:24.997Z,32.9
2018-12-27T05:42:15.037Z,32.9
2018-12-27T05:43:05.749Z,32.9
2018-12-27T05:43:55.178Z,32.9
2018-12-27T05:44:45.233Z,32.9
2018-12-27T05:45:34.457Z,32.9
2018-12-27T05:46:24.226Z,32.8
2018-12-27T05:47:15.671Z,32.8
2018-12-27T05:48:05.720Z,32.8
2018-12-27T05:48:55.563Z,32.8
2018-12-27T05:49:45.375Z,32.8
2018-12-27T05:50:35.644Z,32.8
2018-12-27T05:51:25.937Z,32.8
2018-12-27T05:52:15.456Z,32.7
2018-12-27T05:53:04.964Z,32.7
2018-12-27T05:53:55.816Z,32.6
2018-12-27T05:54:46.972Z,32.5
2018-12-27T05:55:38.768Z,32.4
2018-12-27T05:56:24.923Z,32.3
2018-12-27T05:57:16.183Z,32.2
2018-12-27T05:58:06.123Z,32.1
2018-12-27T05:58:55.351Z,32
2018-12-27T05:59:46.289Z,31.9
2018-12-27T06:00:36.341Z,31.9
2018-12-27T06:01:26.098Z,31.8
2018-12-27T06:02:15.585Z,31.8
2018-12-27T06:03:06.814Z,31.7
2018-12-27T06:03:56.253Z,31.6
2018-12-27T06:04:46.071Z,31.6
2018-12-27T06:05:36.351Z,31.5
2018-12-27T06:06:26.688Z,31.4
2018-12-27T06:07:16.760Z,31.4
2018-12-27T06:08:06.538Z,31.4
2018-12-27T06:08:56.863Z,31.3
2018-12-27T06:09:46.945Z,31.3
2018-12-27T06:10:36.998Z,31.2
2018-12-27T06:11:26.753Z,31.2
2018-12-27T06:12:17.378Z,31.1
2018-12-27T06:13:06.883Z,31.1
2018-12-27T06:13:57.205Z,31.1
2018-12-27T06:14:46.424Z,31
2018-12-27T06:15:37.082Z,30.9
2018-12-27T06:16:26.912Z,30.9
2018-12-27T06:17:16.342Z,30.9
2018-12-27T06:18:06.990Z,30.9
2018-12-27T06:18:56.945Z,30.8
2018-12-27T06:19:47.110Z,30.7
2018-12-27T06:20:36.803Z,30.6
2018-12-27T06:21:27.155Z,30.4
2018-12-27T06:22:17.287Z,30.2
2018-12-27T06:23:07.635Z,30
2018-12-27T06:23:58.432Z,29.8
2018-12-27T06:24:47.927Z,29.6
2018-12-27T06:25:37.772Z,29.4
2018-12-27T06:26:28.339Z,29.3
2018-12-27T06:27:17.609Z,29.1
2018-12-27T06:28:07.060Z,28.9
2018-12-27T06:28:58.477Z,28.8
2018-12-27T06:29:48.082Z,28.6
2018-12-27T06:30:38.655Z,28.4
2018-12-27T06:31:27.547Z,28.3
2018-12-27T06:32:18.798Z,28.2
2018-12-27T06:33:08.537Z,28.1
2018-12-27T06:33:58.406Z,28
2018-12-27T06:34:48.341Z,27.9
2018-12-27T06:36:28.024Z,27.8
2018-12-27T06:37:19.339Z,27.7
2018-12-27T06:38:08.864Z,27.6
2018-12-27T06:38:58.982Z,27.5
2018-12-27T06:39:48.957Z,27.4
2018-12-27T06:40:38.708Z,27.3
2018-12-27T06:41:29.071Z,27.3
2018-12-27T06:42:18.905Z,27.2
2018-12-27T06:43:08.358Z,27.1
2018-12-27T06:43:58.983Z,27
2018-12-27T06:44:49.021Z,26.9
2018-12-27T06:45:39.134Z,26.9
2018-12-27T06:46:29.471Z,26.8
2018-12-27T06:47:19.478Z,26.8
2018-12-27T06:48:09.241Z,26.7
2018-12-27T06:49:00.929Z,26.6
2018-12-27T06:49:49.076Z,26.5
2018-12-27T06:50:39.110Z,26.5
2018-12-27T06:51:29.516Z,26.4
2018-12-27T06:52:19.735Z,26.4
2018-12-27T06:53:09.624Z,26.3
2018-12-27T06:53:59.431Z,26.3
2018-12-27T06:54:50.376Z,26.2
2018-12-27T06:55:39.818Z,26.1
2018-12-27T06:56:30.091Z,26.1
2018-12-27T06:57:20.141Z,26
2018-12-27T06:58:09.380Z,25.9
2018-12-27T06:59:00.263Z,25.8
2018-12-27T06:59:49.326Z,25.8
2018-12-27T07:00:40.355Z,25.6
2018-12-27T07:01:30.417Z,25.6
2018-12-27T07:02:19.668Z,25.4
2018-12-27T07:03:10.810Z,25.4
2018-12-27T07:04:00.307Z,25.3
2018-12-27T07:04:54.793Z,25.1
2018-12-27T07:05:41.000Z,25
2018-12-27T07:06:30.570Z,24.9
2018-12-27T07:07:19.992Z,24.8
2018-12-27T07:08:11.210Z,24.6
2018-12-27T07:09:00.953Z,24.5
2018-12-27T07:09:50.174Z,24.4
2018-12-27T07:10:41.296Z,24.3
2018-12-27T07:11:30.608Z,24.1
2018-12-27T07:12:20.708Z,24
2018-12-27T07:13:11.028Z,23.9
2018-12-27T07:14:00.738Z,23.8
2018-12-27T07:14:50.768Z,23.6
2018-12-27T07:15:40.955Z,23.6
2018-12-27T07:16:30.916Z,23.4
2018-12-27T07:17:20.716Z,23.3
2018-12-27T07:18:10.745Z,23.2
2018-12-27T07:19:03.663Z,23.1
2018-12-27T07:19:51.428Z,23
2018-12-27T07:20:42.013Z,22.9
2018-12-27T07:21:31.241Z,22.8
2018-12-27T07:22:21.565Z,22.7
2018-12-27T07:23:11.936Z,22.6
2018-12-27T07:24:01.675Z,22.5
2018-12-27T07:24:51.186Z,22.4
2018-12-27T07:25:42.145Z,22.4
2018-12-27T07:26:31.285Z,22.3
2018-12-27T07:27:21.140Z,22.2
2018-12-27T07:28:11.717Z,22.2
2018-12-27T07:29:02.592Z,22.2
2018-12-27T07:29:51.263Z,22
2018-12-27T07:30:42.408Z,21.9
2018-12-27T07:31:32.090Z,21.9
2018-12-27T07:32:22.246Z,21.6
2018-12-27T07:33:12.030Z,21.7
2018-12-27T07:34:02.624Z,21.7
2018-12-27T07:34:59.844Z,21.7
2018-12-27T07:35:42.480Z,21.6
2018-12-27T07:36:32.254Z,21.6
2018-12-27T07:37:22.581Z,21.5
2018-12-27T07:38:12.903Z,21.4
2018-12-27T07:39:03.061Z,21.4
2018-12-27T07:39:53.296Z,21.4
2018-12-27T07:40:43.119Z,21.3
2018-12-27T07:41:32.849Z,21.3
2018-12-27T07:42:23.191Z,21.3
2018-12-27T07:43:12.967Z,21.2
2018-12-27T07:45:42.606Z,21.1
2018-12-27T07:46:32.995Z,21.1
2018-12-27T07:47:22.442Z,21
2018-12-27T07:48:13.863Z,20.9
2018-12-27T07:49:03.094Z,20.9
2018-12-27T07:49:53.136Z,20.9
2018-12-27T07:50:43.749Z,20.9
2018-12-27T07:51:33.539Z,20.9
2018-12-27T07:52:24.227Z,20.8
2018-12-27T07:53:13.916Z,20.8
2018-12-27T07:54:04.771Z,20.8
2018-12-27T07:54:53.746Z,20.8
2018-12-27T07:55:43.815Z,20.8
2018-12-27T07:56:34.676Z,20.7
2018-12-27T07:57:24.521Z,20.7
2018-12-27T07:58:14.255Z,20.6
2018-12-27T07:59:04.338Z,20.6
2018-12-27T07:59:54.350Z,20.6
2018-12-27T08:00:43.635Z,20.6
2018-12-27T08:01:34.188Z,20.6
2018-12-27T08:02:23.785Z,20.5
2018-12-27T08:03:14.307Z,20.5
2018-12-27T08:04:04.387Z,20.4
2018-12-27T08:04:54.807Z,20.4
2018-12-27T08:05:43.668Z,20.4
2018-12-27T08:06:34.555Z,20.4
2018-12-27T08:07:24.725Z,20.4
2018-12-27T08:08:14.933Z,20.4
2018-12-27T08:09:04.438Z,20.4
2018-12-27T08:09:54.798Z,20.4
2018-12-27T08:10:44.605Z,20.3
2018-12-27T08:11:34.876Z,20.3
2018-12-27T08:12:25.289Z,20.3
2018-12-27T08:13:14.993Z,20.3
2018-12-27T08:14:04.843Z,20.3
2018-12-27T08:14:55.684Z,20.3
2018-12-27T08:15:45.737Z,20.3
2018-12-27T08:16:35.799Z,20.2
2018-12-27T08:17:25.266Z,20.2
2018-12-27T08:18:15.607Z,20.2
2018-12-27T08:19:05.696Z,20.2
2018-12-27T08:19:55.751Z,20.1
2018-12-27T08:20:44.679Z,20.2
2018-12-27T08:21:35.602Z,20.1
2018-12-27T08:22:26.417Z,20.1
2018-12-27T08:23:15.146Z,20.1
2018-12-27T08:24:06.052Z,20.1
2018-12-27T08:24:56.059Z,20.1
2018-12-27T08:25:45.292Z,20.1
2018-12-27T08:26:36.791Z,20.1
2018-12-27T08:27:25.957Z,20.1
2018-12-27T08:28:15.844Z,20
2018-12-27T08:29:06.093Z,20
2018-12-27T08:29:56.086Z,20
2018-12-27T08:30:46.721Z,19.9
2018-12-27T08:31:36.220Z,19.9
2018-12-27T08:32:26.278Z,19.9
2018-12-27T08:33:15.833Z,19.9
2018-12-27T08:34:06.714Z,19.9
2018-12-27T08:34:56.186Z,19.9
2018-12-27T08:35:45.973Z,19.9
2018-12-27T08:36:37.116Z,19.9
2018-12-27T08:37:27.166Z,19.8
2018-12-27T08:39:06.745Z,19.8
2018-12-27T08:39:56.490Z,19.8
2018-12-27T08:40:46.828Z,19.8
2018-12-27T08:41:36.663Z,19.8
2018-12-27T08:42:26.697Z,19.8
2018-12-27T08:43:17.640Z,19.7
2018-12-27T08:44:06.840Z,19.7
2018-12-27T08:44:56.835Z,19.7
2018-12-27T08:45:47.196Z,19.7
2018-12-27T08:46:37.530Z,19.6
2018-12-27T08:47:29.835Z,19.6
2018-12-27T08:48:17.054Z,19.6
2018-12-27T08:49:07.670Z,19.6
2018-12-27T08:49:57.187Z,19.6
2018-12-27T08:50:47.032Z,19.6
2018-12-27T08:51:37.370Z,19.6
2018-12-27T08:52:26.382Z,19.6
2018-12-27T08:53:17.242Z,19.6
2018-12-27T08:54:07.733Z,19.5
2018-12-27T08:54:57.787Z,19.5
2018-12-27T08:55:48.179Z,19.5
2018-12-27T08:56:38.174Z,19.5
2018-12-27T08:57:28.523Z,19.4
2018-12-27T08:58:18.002Z,19.4
2018-12-27T08:59:08.624Z,19.4
2018-12-27T08:59:57.874Z,19.4
2018-12-27T09:00:47.602Z,19.4
2018-12-27T09:16:35.518Z,19.2
2018-12-27T09:17:25.301Z,19.2
2018-12-27T09:18:15.170Z,19.2
2018-12-27T09:19:05.991Z,19.1
2018-12-27T09:19:55.706Z,19.1
2018-12-27T09:20:45.836Z,19.1
2018-12-27T09:21:34.762Z,19.1
2018-12-27T09:22:25.675Z,19.1
2018-12-27T09:23:15.718Z,19.1
2018-12-27T09:24:06.277Z,19.1
2018-12-27T09:24:55.490Z,19.1
2018-12-27T09:25:48.322Z,19.1
2018-12-27T09:26:36.419Z,19.1
2018-12-27T09:27:26.558Z,19.1
2018-12-27T09:28:15.979Z,19.1
2018-12-27T09:29:06.332Z,19.1
2018-12-27T09:29:56.382Z,19.1
2018-12-27T09:30:45.512Z,19
2018-12-27T09:31:36.217Z,19
2018-12-27T09:32:27.114Z,19
2018-12-27T09:33:16.904Z,19
2018-12-27T09:34:06.462Z,18.9
2018-12-27T09:34:55.976Z,18.9
2018-12-27T09:35:46.052Z,18.9
2018-12-27T09:36:37.434Z,18.9
2018-12-27T09:37:26.641Z,18.9
2018-12-27T09:38:16.681Z,18.9
2018-12-27T09:39:07.316Z,18.9
2018-12-27T09:39:56.846Z,18.9
2018-12-27T09:40:46.631Z,18.9
2018-12-27T09:41:36.948Z,18.9
2018-12-27T09:42:28.179Z,18.9
2018-12-27T09:43:16.798Z,18.9
2018-12-27T09:44:07.726Z,18.8
2018-12-27T09:44:57.960Z,18.8
2018-12-27T09:45:46.688Z,18.8
2018-12-27T09:46:37.268Z,18.8
2018-12-27T09:47:27.565Z,18.8
2018-12-27T09:48:16.868Z,18.8
2018-12-27T09:49:07.202Z,18.8
2018-12-27T09:49:57.528Z,18.8
2018-12-27T09:50:47.633Z,18.8
2018-12-27T09:51:38.125Z,18.8
2018-12-27T09:52:28.013Z,18.8
2018-12-27T09:53:17.478Z,18.8
2018-12-27T09:54:07.257Z,18.8
2018-12-27T09:54:57.085Z,18.8
2018-12-27T09:55:47.985Z,18.8
2018-12-27T09:56:37.975Z,18.8
2018-12-27T09:57:27.977Z,18.8
2018-12-27T09:59:07.328Z,18.8
2018-12-27T10:06:38.685Z,18.6
2018-12-27T10:07:28.414Z,18.6
2018-12-27T10:09:58.906Z,18.6
2018-12-27T10:11:39.077Z,18.6
2018-12-27T10:12:29.583Z,18.6
2018-12-27T10:13:19.027Z,18.6
2018-12-27T10:14:09.656Z,18.6
2018-12-27T10:14:59.519Z,18.6
2018-12-27T10:15:49.014Z,18.6
2018-12-27T10:16:39.824Z,18.6
2018-12-27T10:17:29.881Z,18.6
2018-12-27T10:18:19.683Z,18.6
2018-12-27T10:19:09.446Z,18.6
2018-12-27T10:20:00.235Z,18.6
2018-12-27T10:20:50.121Z,18.6
2018-12-27T10:21:39.897Z,18.6
2018-12-27T10:22:30.009Z,18.6
2018-12-27T10:23:20.534Z,18.6
2018-12-27T10:24:09.594Z,18.6
2018-12-27T10:25:00.414Z,18.6
2018-12-27T10:25:50.451Z,18.6
2018-12-27T10:26:39.436Z,18.6
2018-12-27T10:27:30.571Z,18.6
2018-12-27T10:28:20.464Z,18.6
2018-12-27T10:29:10.468Z,18.6
2018-12-27T10:30:00.239Z,18.6
2018-12-27T10:30:50.266Z,18.6
2018-12-27T10:31:40.026Z,18.6
2018-12-27T10:32:30.343Z,18.6
2018-12-27T10:33:20.709Z,18.6
2018-12-27T10:34:11.016Z,18.6
2018-12-27T10:35:01.128Z,18.6
2018-12-27T10:35:51.668Z,18.6
2018-12-27T10:36:43.093Z,18.6
2018-12-27T10:37:30.963Z,18.6
2018-12-27T10:38:21.831Z,18.6
2018-12-27T10:39:10.538Z,18.6
2018-12-27T10:40:01.408Z,18.6
2018-12-27T10:40:51.460Z,18.6
2018-12-27T10:41:41.521Z,18.6
2018-12-27T10:42:31.010Z,18.6
2018-12-27T10:43:21.345Z,18.6
2018-12-27T10:44:11.691Z,18.6
2018-12-27T10:45:01.465Z,18.5
2018-12-27T10:45:51.253Z,18.6
2018-12-27T10:46:41.595Z,18.5
2018-12-27T10:47:31.775Z,18.5
2018-12-27T10:48:22.245Z,18.6
2018-12-27T10:49:12.050Z,18.5
2018-12-27T10:50:01.641Z,18.6
2018-12-27T10:50:51.325Z,18.5
2018-12-27T10:51:42.212Z,18.5
2018-12-27T10:52:32.060Z,18.6
2018-12-27T10:53:22.115Z,18.6
2018-12-27T10:54:12.847Z,18.5
2018-12-27T10:55:02.705Z,18.5
2018-12-27T10:55:52.215Z,18.5
2018-12-27T10:56:42.609Z,18.5
2018-12-27T10:57:35.298Z,18.5
2018-12-27T10:58:21.549Z,18.5
2018-12-27T10:59:12.529Z,18.5
2018-12-27T11:00:03.070Z,18.5
2018-12-27T11:00:52.643Z,18.5
2018-12-27T11:01:42.577Z,18.5
2018-12-27T11:02:32.942Z,18.5
2018-12-27T11:03:30.246Z,18.5
2018-12-27T11:04:13.079Z,18.5
2018-12-27T11:05:03.452Z,18.5
2018-12-27T11:05:53.326Z,18.5
2018-12-27T11:06:43.002Z,18.5
2018-12-27T11:07:33.296Z,18.5
2018-12-27T11:08:22.479Z,18.5
2018-12-27T11:09:12.314Z,18.5
2018-12-27T11:10:03.846Z,18.5
2018-12-27T11:10:52.435Z,18.5
2018-12-27T11:11:42.971Z,18.5
2018-12-27T11:12:33.591Z,18.5
2018-12-27T11:13:23.384Z,18.5
2018-12-27T11:14:13.213Z,18.5
2018-12-27T11:15:03.552Z,18.5
2018-12-27T11:15:54.090Z,18.5
2018-12-27T11:16:43.615Z,18.5
2018-12-27T11:17:33.636Z,18.5
2018-12-27T11:18:23.995Z,18.5
2018-12-27T11:19:13.537Z,18.5
2018-12-27T11:20:03.838Z,18.5
2018-12-27T11:20:54.190Z,18.5
2018-12-27T11:21:44.202Z,18.5
2018-12-27T11:22:34.567Z,18.5
2018-12-27T11:23:24.062Z,18.5
2018-12-27T11:24:14.119Z,18.4
2018-12-27T11:25:03.907Z,18.5
2018-12-27T11:25:53.967Z,18.5
2018-12-27T11:26:45.079Z,18.4
2018-12-27T11:27:34.609Z,18.5
2018-12-27T11:28:24.371Z,18.5
2018-12-27T11:29:14.459Z,18.4
2018-12-27T11:30:04.568Z,18.5
2018-12-27T11:30:54.059Z,18.5
2018-12-27T11:31:45.181Z,18.5
2018-12-27T11:32:34.679Z,18.5
2018-12-27T11:33:23.949Z,18.4
2018-12-27T11:34:14.554Z,18.5
2018-12-27T11:35:05.223Z,18.4
2018-12-27T11:36:01.399Z,18.4
2018-12-27T11:36:44.939Z,18.5
2018-12-27T11:37:34.793Z,18.5
2018-12-27T11:38:25.060Z,18.4
2018-12-27T11:39:14.278Z,18.4
2018-12-27T11:40:04.643Z,18.5
2018-12-27T11:40:55.176Z,18.4
2018-12-27T11:41:45.290Z,18.4
2018-12-27T11:42:35.628Z,18.4
2018-12-27T11:43:25.391Z,18.4
2018-12-27T11:44:14.602Z,18.4
2018-12-27T11:45:05.789Z,18.4
2018-12-27T11:45:56.102Z,18.4
2018-12-27T11:46:44.798Z,18.4
2018-12-27T11:47:35.413Z,18.4
2018-12-27T11:48:25.473Z,18.4
2018-12-27T11:49:15.250Z,18.4
2018-12-27T11:50:39.560Z,18.4
2018-12-27T11:51:29.160Z,18.4
2018-12-27T11:52:20.157Z,18.5
2018-12-27T11:53:09.472Z,18.4
2018-12-27T11:53:59.508Z,18.4
2018-12-27T11:54:49.655Z,18.4
2018-12-27T11:55:39.637Z,18.4
2018-12-27T11:56:29.700Z,18.4
2018-12-27T11:57:19.174Z,18.4
2018-12-27T11:58:10.322Z,18.4
2018-12-27T11:58:59.588Z,18.4
2018-12-27T11:59:49.407Z,18.4
2018-12-27T12:00:39.699Z,18.4
2018-12-27T12:01:30.303Z,18.4
2018-12-27T12:02:20.097Z,18.4
2018-12-27T12:03:08.757Z,18.4
2018-12-27T12:04:00.189Z,18.4
2018-12-27T12:04:50.229Z,18.4
2018-12-27T12:05:39.259Z,18.4
2018-12-27T12:06:30.351Z,18.4
2018-12-27T12:07:20.691Z,18.4
2018-12-27T12:08:10.519Z,18.4
2018-12-27T12:09:00.259Z,18.4
2018-12-27T12:09:50.108Z,18.4
2018-12-27T12:11:31.410Z,18.4
2018-12-27T12:12:21.744Z,18.4
2018-12-27T12:13:12.382Z,18.4
2018-12-27T12:14:01.574Z,18.4